Time;durP1;ratioP1;P1;durP2;ratioP2;P2;SDS_P1;SDS_P2;PMS_P1;PMS_P2;Temp;Humidity;BMP_temperature;BMP_pressure;BME280_temperature;BME280_humidity;BME280_pressure;Samples;Min_cycle;Max_cycle;Signal;HPM_P1;HPM_P2
2023/07/20 00:02:07;;;;;;;10.13;6.57;;;;;;;26.03;55.44;99494.63;5106798;28;20036;-22
2023/07/20 00:04:33;;;;;;;9.40;6.32;;;;;;;26.13;55.76;99492.59;5106522;28;20054;-27
2023/07/20 00:07:01;;;;;;;10.73;7.00;;;;;;;26.12;55.24;99504.66;5106895;28;20059;-23
2023/07/20 00:09:27;;;;;;;11.70;7.20;;;;;;;25.59;58.14;99510.53;5106536;28;20031;-22
2023/07/20 00:11:55;;;;;;;10.35;6.82;;;;;;;25.72;55.95;99516.88;5106216;28;20114;-23
2023/07/20 00:14:21;;;;;;;11.85;8.25;;;;;;;25.56;55.84;99557.63;5106507;28;20515;-25
2023/07/20 00:16:46;;;;;;;10.60;7.25;;;;;;;25.39;56.22;99609.59;5105932;28;20032;-23
2023/07/20 00:19:12;;;;;;;10.68;6.82;;;;;;;24.58;60.75;99650.28;5106055;28;20063;-23
2023/07/20 00:21:40;;;;;;;10.68;7.28;;;;;;;24.41;61.03;99656.50;5105894;28;20044;-24
2023/07/20 00:24:05;;;;;;;14.38;7.20;;;;;;;24.45;61.07;99652.00;5106255;28;20023;-22
2023/07/20 00:26:31;;;;;;;11.95;7.30;;;;;;;24.73;60.06;99645.44;5106164;28;20069;-23
2023/07/20 00:29:06;;;;;;;13.32;6.90;;;;;;;24.69;60.46;99639.81;5106331;28;20035;-22
2023/07/20 00:31:32;;;;;;;11.45;7.82;;;;;;;25.03;58.48;99627.25;5106248;28;20133;-22
2023/07/20 00:33:57;;;;;;;10.95;8.27;;;;;;;25.22;57.85;99619.47;5105996;28;20028;-23
2023/07/20 00:36:23;;;;;;;12.00;6.70;;;;;;;25.32;56.91;99595.69;5106062;28;20038;-23
2023/07/20 00:38:48;;;;;;;11.85;6.90;;;;;;;25.00;57.66;99562.41;5105815;28;20031;-23
2023/07/20 00:41:14;;;;;;;10.55;6.70;;;;;;;24.80;59.57;99559.25;5105870;28;20027;-23
2023/07/20 00:43:39;;;;;;;14.18;6.60;;;;;;;24.84;59.62;99562.94;5105777;28;20109;-23
2023/07/20 00:46:05;;;;;;;14.48;7.47;;;;;;;24.97;59.45;99563.88;5106179;28;20537;-27
2023/07/20 00:48:32;;;;;;;12.48;7.00;;;;;;;24.61;60.73;99550.69;5105969;28;20023;-22
2023/07/20 00:51:02;;;;;;;12.45;7.28;;;;;;;24.36;61.99;99541.41;5105589;28;20096;-23
2023/07/20 00:53:28;;;;;;;9.57;7.43;;;;;;;24.28;62.65;99537.56;5104251;28;20646;-23
2023/07/20 00:55:53;;;;;;;11.82;6.70;;;;;;;24.56;62.10;99531.75;5105365;28;20488;-23
2023/07/20 00:58:19;;;;;;;9.25;7.03;;;;;;;24.39;62.57;99538.81;5105649;28;20035;-23
2023/07/20 01:00:44;;;;;;;11.60;7.63;;;;;;;24.33;63.07;99533.88;5104987;28;20086;-22
2023/07/20 01:03:10;;;;;;;10.13;6.88;;;;;;;24.19;63.69;99534.88;5105623;28;20027;-23
2023/07/20 01:05:50;;;;;;;10.57;6.97;;;;;;;23.95;64.18;99524.47;5105243;28;20028;-25
2023/07/20 01:08:32;;;;;;;11.05;7.40;;;;;;;24.10;63.61;99525.09;5105062;28;20071;-23
2023/07/20 01:11:06;;;;;;;10.95;6.97;;;;;;;24.17;63.87;99519.94;5105453;28;20027;-23
2023/07/20 01:13:35;;;;;;;12.07;7.55;;;;;;;24.06;63.93;99520.28;5105299;28;20042;-24
2023/07/20 01:16:03;;;;;;;13.43;7.68;;;;;;;23.94;64.86;99520.16;5105433;28;20027;-23
2023/07/20 01:18:29;;;;;;;11.63;7.95;;;;;;;23.84;65.31;99517.75;5105568;28;20139;-23
2023/07/20 01:21:01;;;;;;;10.63;7.82;;;;;;;23.77;65.54;99517.44;5104828;28;20114;-23
2023/07/20 01:23:55;;;;;;;9.63;7.68;;;;;;;23.98;64.97;99518.38;5105086;28;20420;-23
2023/07/20 01:26:58;;;;;;;12.07;7.60;;;;;;;23.93;65.01;99512.31;5105164;28;20035;-23
2023/07/20 01:29:29;;;;;;;11.13;7.22;;;;;;;23.69;66.07;99510.03;5105040;28;20694;-23
2023/07/20 01:31:59;;;;;;;12.85;8.18;;;;;;;23.70;65.64;99500.75;5105301;28;20032;-22
2023/07/20 01:34:26;;;;;;;10.95;8.18;;;;;;;23.57;66.48;99503.31;5104667;28;20027;-24
2023/07/20 01:36:54;;;;;;;10.67;7.87;;;;;;;23.64;65.87;99502.84;5105150;28;20107;-22
2023/07/20 01:39:21;;;;;;;14.02;8.10;;;;;;;23.80;64.88;99500.44;5104463;28;20450;-22
2023/07/20 01:41:47;;;;;;;11.45;7.57;;;;;;;23.98;64.22;99496.59;5104926;28;20031;-23
2023/07/20 01:44:13;;;;;;;10.02;7.18;;;;;;;24.05;64.08;99502.38;5104758;28;20054;-24
2023/07/20 01:46:38;;;;;;;10.23;7.18;;;;;;;24.18;62.81;99499.78;5104721;28;20028;-25
2023/07/20 01:49:06;;;;;;;10.88;6.95;;;;;;;24.14;62.47;99499.63;5104158;28;20465;-24
2023/07/20 01:51:31;;;;;;;;;;;;;;;24.20;63.22;99502.97;5105081;28;20070;-23
2023/07/20 01:53:59;;;;;;;11.20;7.30;;;;;;;24.40;62.02;99502.28;5104472;28;19947;-23
2023/07/20 01:56:27;;;;;;;11.73;7.47;;;;;;;24.52;61.31;99498.09;5104520;28;20089;-23
2023/07/20 01:58:52;;;;;;;10.40;6.55;;;;;;;24.65;60.76;99511.53;5104580;28;20075;-23
2023/07/20 02:01:18;;;;;;;13.73;7.40;;;;;;;24.80;59.65;99514.84;5104546;28;20066;-23
2023/07/20 02:03:43;;;;;;;12.02;7.50;;;;;;;24.78;59.38;99517.09;5104422;28;20020;-23
2023/07/20 02:06:12;;;;;;;10.38;7.13;;;;;;;24.96;59.73;99510.44;5104115;28;20035;-23
2023/07/20 02:08:39;;;;;;;10.30;6.35;;;;;;;25.07;58.26;99513.59;5104502;28;20073;-23
2023/07/20 02:11:05;;;;;;;10.95;6.78;;;;;;;24.74;59.47;99516.16;5104506;28;20035;-23
2023/07/20 02:13:30;;;;;;;11.18;7.43;;;;;;;24.67;59.97;99522.13;5104693;28;20032;-23
2023/07/20 02:15:55;;;;;;;10.98;7.10;;;;;;;24.72;59.87;99518.41;5104255;28;20043;-23
2023/07/20 02:18:21;;;;;;;13.63;7.53;;;;;;;24.72;60.08;99519.19;5104500;28;20084;-22
2023/07/20 02:20:46;;;;;;;11.45;7.00;;;;;;;24.83;58.88;99520.44;5104473;28;20035;-23
2023/07/20 02:23:12;;;;;;;10.13;6.82;;;;;;;24.67;59.51;99522.13;5104077;28;20050;-23
2023/07/20 02:25:38;;;;;;;11.73;7.22;;;;;;;24.52;60.39;99519.91;5104597;28;20039;-23
2023/07/20 02:28:06;;;;;;;11.90;7.28;;;;;;;24.54;60.57;99517.66;5104573;28;20032;-22
2023/07/20 02:30:34;;;;;;;13.25;7.63;;;;;;;24.51;60.76;99518.31;5104559;28;20115;-23
2023/07/20 02:33:00;;;;;;;11.52;7.25;;;;;;;24.60;60.33;99527.25;5104269;28;20023;-23
2023/07/20 02:35:27;;;;;;;10.82;7.18;;;;;;;24.69;60.54;99530.75;5103782;28;20035;-23
2023/07/20 02:37:53;;;;;;;13.70;7.35;;;;;;;24.70;60.43;99543.25;5104329;28;20106;-23
2023/07/20 02:40:19;;;;;;;32.03;9.75;;;;;;;24.65;60.39;99529.81;5104032;28;20118;-23
2023/07/20 02:42:44;;;;;;;35.30;8.25;;;;;;;24.70;61.15;99532.34;5104278;28;20031;-23
2023/07/20 02:45:12;;;;;;;32.22;8.90;;;;;;;24.53;61.34;99532.41;5104008;28;20035;-23
2023/07/20 02:47:37;;;;;;;23.42;8.57;;;;;;;24.17;63.35;99533.56;5104220;28;20805;-24
2023/07/20 02:50:05;;;;;;;23.15;9.40;;;;;;;24.52;62.55;99528.09;5104271;28;20019;-23
2023/07/20 02:52:31;;;;;;;13.30;7.68;;;;;;;24.53;62.33;99521.53;5103870;28;20028;-23
2023/07/20 02:54:56;;;;;;;19.90;7.88;;;;;;;24.52;62.32;99519.91;5103763;28;20393;-23
2023/07/20 02:57:22;;;;;;;18.10;8.52;;;;;;;24.64;61.21;99518.13;5104072;28;20016;-23
2023/07/20 02:59:47;;;;;;;17.98;7.60;;;;;;;24.70;61.09;99520.66;5104565;28;20043;-23
2023/07/20 03:02:13;;;;;;;20.08;7.53;;;;;;;24.85;61.02;99528.31;5108037;28;20039;-23
2023/07/20 03:04:38;;;;;;;18.20;8.20;;;;;;;24.79;60.67;99524.94;5107968;28;20020;-26
2023/07/20 03:07:05;;;;;;;19.00;8.65;;;;;;;24.80;60.07;99526.53;5107959;28;20030;-23
2023/07/20 03:09:35;;;;;;;19.85;8.90;;;;;;;24.77;61.69;99529.94;5106628;28;20030;-21
2023/07/20 03:12:02;;;;;;;18.48;8.68;;;;;;;24.73;60.34;99537.16;5107642;28;20098;-22
2023/07/20 03:14:27;;;;;;;19.88;8.05;;;;;;;24.58;60.88;99537.69;5107774;28;20112;-23
2023/07/20 03:16:55;;;;;;;17.05;8.25;;;;;;;24.70;61.16;99542.47;5107559;28;20088;-23
2023/07/20 03:19:20;;;;;;;;;;;;;;;24.73;60.64;99541.81;5108077;27;20030;-24
2023/07/20 03:21:46;;;;;;;14.95;8.27;;;;;;;24.77;60.25;99523.69;5107574;28;19912;-23
2023/07/20 03:24:14;;;;;;;14.73;7.05;;;;;;;24.78;61.34;99528.78;5107570;28;20031;-23
2023/07/20 03:26:42;;;;;;;26.20;8.20;;;;;;;24.94;59.90;99526.31;5107905;28;20031;-25
2023/07/20 03:29:08;;;;;;;12.50;7.70;;;;;;;25.11;58.69;99528.19;5107821;27;20130;-22
2023/07/20 03:31:33;;;;;;;13.90;7.70;;;;;;;25.10;58.65;99523.84;5107448;28;20106;-23
2023/07/20 03:33:59;;;;;;;12.80;7.55;;;;;;;25.09;58.64;99522.25;5107389;28;20024;-23
2023/07/20 03:36:24;;;;;;;19.27;7.70;;;;;;;24.96;58.76;99518.59;5105805;28;20028;-23
2023/07/20 03:38:50;;;;;;;12.38;7.03;;;;;;;24.75;61.12;99521.28;5107165;28;20035;-23
2023/07/20 03:41:16;;;;;;;12.18;7.40;;;;;;;25.00;60.44;99521.50;5107197;28;20458;-23
2023/07/20 03:43:41;;;;;;;15.95;7.88;;;;;;;24.82;60.46;99524.28;5107091;28;20114;-26
2023/07/20 03:46:09;;;;;;;11.20;7.07;;;;;;;24.75;61.74;99521.28;5107018;28;20097;-24
2023/07/20 03:48:37;;;;;;;21.35;7.55;;;;;;;25.00;59.81;99513.31;5106987;28;20531;-24
2023/07/20 03:51:02;;;;;;;14.77;7.75;;;;;;;25.05;59.85;99507.69;5107029;28;21173;-23
2023/07/20 03:53:28;;;;;;;15.25;7.60;;;;;;;25.14;59.38;99505.69;5106928;28;20084;-24
2023/07/20 03:55:53;;;;;;;12.45;8.05;;;;;;;25.44;58.01;99514.69;5106927;27;20492;-23
2023/07/20 03:58:20;;;;;;;15.30;8.48;;;;;;;25.09;59.93;99505.88;5106914;28;20040;-24
2023/07/20 04:00:50;;;;;;;13.57;7.95;;;;;;;25.25;59.43;99497.94;5106493;28;20046;-24
2023/07/20 04:03:17;;;;;;;14.32;8.50;;;;;;;25.31;58.94;99512.19;5106949;28;20028;-24
2023/07/20 04:05:43;;;;;;;10.57;7.20;;;;;;;25.20;58.87;99512.53;5106393;28;20027;-24
2023/07/20 04:08:09;;;;;;;10.73;7.55;;;;;;;25.35;59.09;99529.50;5107124;28;20038;-25
2023/07/20 04:10:35;;;;;;;16.42;8.90;;;;;;;25.30;58.31;99516.84;5106123;28;20059;-25
2023/07/20 04:13:00;;;;;;;13.25;8.05;;;;;;;25.08;61.17;99525.31;5106972;28;20100;-23
2023/07/20 04:15:26;;;;;;;13.00;7.53;;;;;;;24.79;61.99;99524.94;5106536;28;20032;-23
2023/07/20 04:17:51;;;;;;;14.00;7.18;;;;;;;25.00;61.52;99530.47;5106626;28;20574;-23
2023/07/20 04:20:18;;;;;;;13.07;7.43;;;;;;;25.09;62.27;99522.25;5106269;28;20019;-23
2023/07/20 04:22:44;;;;;;;12.00;7.07;;;;;;;25.12;62.18;99526.25;5106814;28;20027;-23
2023/07/20 04:25:12;;;;;;;14.35;7.90;;;;;;;25.19;61.77;99524.59;5106520;28;20031;-23
2023/07/20 04:27:37;;;;;;;11.48;6.93;;;;;;;25.35;62.05;99530.28;5106345;28;20484;-23
2023/07/20 04:30:03;;;;;;;12.55;7.47;;;;;;;25.38;61.76;99524.19;5106330;28;20480;-22
2023/07/20 04:32:29;;;;;;;17.85;7.82;;;;;;;25.57;60.57;99531.13;5106040;28;20130;-23
2023/07/20 04:34:54;;;;;;;14.95;8.98;;;;;;;25.45;61.46;99532.63;5106406;28;20032;-23
2023/07/20 04:37:19;;;;;;;11.07;7.55;;;;;;;25.51;60.35;99530.53;5105932;28;20073;-25
2023/07/20 04:39:45;;;;;;;12.63;7.82;;;;;;;25.54;60.42;99532.59;5105952;28;20564;-23
2023/07/20 04:42:11;;;;;;;12.73;8.13;;;;;;;25.66;59.61;99534.56;5106285;28;20461;-24
2023/07/20 04:44:36;;;;;;;14.52;7.90;;;;;;;25.55;60.06;99527.94;5105536;28;20028;-23
2023/07/20 04:47:02;;;;;;;13.82;7.88;;;;;;;25.70;59.70;99534.72;5105855;28;20032;-23
2023/07/20 04:49:30;;;;;;;12.15;7.35;;;;;;;25.58;59.93;99530.81;5105845;28;20575;-23
2023/07/20 04:51:55;;;;;;;11.70;8.32;;;;;;;25.56;59.71;99526.78;5105798;28;20757;-25
2023/07/20 04:54:21;;;;;;;15.05;7.80;;;;;;;25.88;60.30;99527.19;5105672;28;20107;-23
2023/07/20 04:56:49;;;;;;;12.13;8.88;;;;;;;25.95;58.62;99524.72;5105710;28;20050;-23
2023/07/20 04:59:14;;;;;;;10.10;7.57;;;;;;;26.25;57.93;99528.16;5105629;28;20039;-25
2023/07/20 05:01:40;;;;;;;13.88;7.93;;;;;;;26.24;57.48;99530.09;5105722;28;20334;-23
2023/07/20 05:04:05;;;;;;;14.15;7.45;;;;;;;26.40;56.46;99524.78;5105786;28;20024;-23
2023/07/20 05:06:30;;;;;;;9.88;7.50;;;;;;;26.38;57.65;99524.34;5105702;28;20682;-23
2023/07/20 05:08:58;;;;;;;11.02;7.80;;;;;;;26.88;53.94;99529.91;5105482;28;20463;-24
2023/07/20 05:11:23;;;;;;;;;;;;;;;26.81;55.59;99531.25;5105963;28;20042;-23
2023/07/20 05:13:49;;;;;;;11.97;7.23;;;;;;;26.89;55.25;99529.56;5105461;28;19907;-23
2023/07/20 05:16:14;;;;;;;15.07;7.65;;;;;;;27.10;54.41;99529.44;5104935;28;20368;-27
2023/07/20 05:18:40;;;;;;;14.32;7.78;;;;;;;27.21;55.08;99533.28;5105666;28;20019;-23
2023/07/20 05:21:06;;;;;;;9.82;7.85;;;;;;;27.05;54.28;99532.41;5105379;28;20034;-24
2023/07/20 05:23:31;;;;;;;11.77;7.68;;;;;;;27.15;54.80;99526.47;5104470;28;20036;-22
2023/07/20 05:25:58;;;;;;;17.77;8.10;;;;;;;27.34;54.19;99531.41;5105803;28;20024;-23
2023/07/20 05:28:24;;;;;;;13.00;7.67;;;;;;;27.67;52.98;99524.94;5103850;28;20020;-24
2023/07/20 05:30:53;;;;;;;14.88;7.55;;;;;;;27.61;53.63;99521.63;5105088;28;20024;-24
2023/07/20 05:33:20;;;;;;;10.85;7.15;;;;;;;27.73;53.78;99522.75;5104534;28;20504;-24
2023/07/20 05:35:46;;;;;;;11.70;7.63;;;;;;;28.07;52.99;99515.09;5104262;28;20567;-24
2023/07/20 05:38:12;;;;;;;15.10;8.77;;;;;;;27.95;53.50;99511.28;5105712;28;20034;-24
2023/07/20 05:40:38;;;;;;;14.57;8.00;;;;;;;28.24;52.90;99501.88;5104638;28;20036;-24
2023/07/20 05:43:03;;;;;;;15.38;8.32;;;;;;;28.33;52.06;99503.66;5105419;28;20035;-25
2023/07/20 05:45:29;;;;;;;14.48;8.45;;;;;;;28.16;53.19;99497.34;5104605;28;20023;-23
2023/07/20 05:47:54;;;;;;;16.40;8.90;;;;;;;28.33;54.40;99496.22;5104945;28;20028;-23
2023/07/20 05:50:22;;;;;;;12.55;7.95;;;;;;;28.42;53.94;99496.03;5104347;28;20092;-24
2023/07/20 05:52:55;;;;;;;13.30;8.73;;;;;;;28.51;53.67;99480.25;5104888;28;20030;-24
2023/07/20 05:55:20;;;;;;;14.35;8.25;;;;;;;28.65;54.39;99496.28;5104590;28;20122;-24
2023/07/20 05:57:47;;;;;;;12.10;8.10;;;;;;;28.60;53.98;99491.03;5104548;28;20662;-26
2023/07/20 06:00:14;;;;;;;14.73;7.83;;;;;;;28.75;54.68;99487.50;5104582;28;20046;-24
2023/07/20 06:02:40;;;;;;;13.60;8.30;;;;;;;29.00;52.02;99488.09;5104723;28;20309;-24
2023/07/20 06:05:23;;;;;;;16.30;7.38;;;;;;;29.21;52.68;99485.06;5104487;28;20423;-24
2023/07/20 06:07:51;;;;;;;13.52;7.93;;;;;;;29.41;50.48;99483.13;5104902;28;20035;-24
2023/07/20 06:10:16;;;;;;;14.18;7.63;;;;;;;29.32;50.66;99490.00;5104661;28;20031;-24
2023/07/20 06:12:41;;;;;;;14.95;7.50;;;;;;;29.55;48.82;99487.34;5104673;28;20785;-24
2023/07/20 06:15:25;;;;;;;14.02;8.43;;;;;;;29.53;47.96;99473.97;5104869;28;20396;-24
2023/07/20 06:17:50;;;;;;;13.60;7.13;;;;;;;30.15;47.64;99479.50;5104724;28;20802;-24
2023/07/20 06:20:16;;;;;;;13.98;6.80;;;;;;;30.21;46.81;99480.00;5104457;28;20028;-24
2023/07/20 06:22:41;;;;;;;13.20;7.13;;;;;;;30.19;45.72;99482.31;5104777;28;20062;-24
2023/07/20 06:25:07;;;;;;;14.52;6.70;;;;;;;30.30;45.18;99483.34;5104877;28;20067;-24
2023/07/20 06:27:33;;;;;;;14.88;7.38;;;;;;;30.24;43.86;99473.78;5104339;28;20019;-25
2023/07/20 06:30:06;;;;;;;13.52;7.00;;;;;;;30.44;44.14;99464.34;5104488;28;20076;-25
2023/07/20 06:32:32;;;;;;;10.32;6.88;;;;;;;30.63;42.15;99473.69;5104464;28;20035;-24
2023/07/20 06:34:57;;;;;;;9.98;6.70;;;;;;;30.73;42.52;99478.56;5107317;28;20034;-26
2023/07/20 06:37:24;;;;;;;10.23;6.65;;;;;;;30.61;42.36;99476.00;5108333;28;20027;-24
2023/07/20 06:39:49;;;;;;;11.35;5.72;;;;;;;30.84;40.83;99479.50;5108774;28;20445;-24
2023/07/20 06:42:14;;;;;;;12.40;7.25;;;;;;;30.85;42.30;99474.78;5108400;28;20088;-24
2023/07/20 06:44:40;;;;;;;11.77;6.82;;;;;;;31.03;40.94;99475.09;5108442;28;20028;-25
2023/07/20 06:47:08;;;;;;;9.65;6.18;;;;;;;31.10;40.12;99474.41;5108106;28;20038;-24
2023/07/20 06:49:34;;;;;;;11.77;5.90;;;;;;;31.22;38.76;99471.41;5108104;28;20035;-24
2023/07/20 06:51:59;;;;;;;10.90;6.22;;;;;;;31.34;39.77;99473.94;5108193;28;20024;-24
2023/07/20 06:54:25;;;;;;;8.38;6.07;;;;;;;31.48;39.92;99467.84;5107958;28;20138;-24
2023/07/20 06:56:51;;;;;;;13.15;6.40;;;;;;;31.64;41.79;99465.69;5107784;28;20119;-24
2023/07/20 06:59:16;;;;;;;9.93;6.00;;;;;;;31.47;41.59;99465.47;5108093;28;20040;-24
2023/07/20 07:01:41;;;;;;;13.25;9.45;;;;;;;31.54;41.83;99466.34;5108218;28;20048;-24
2023/07/20 07:04:07;;;;;;;13.65;8.05;;;;;;;31.53;41.55;99459.28;5107626;28;20426;-24
2023/07/20 07:06:32;;;;;;;11.60;8.75;;;;;;;31.69;41.53;99463.75;5107982;28;20031;-26
2023/07/20 07:09:07;;;;;;;10.10;7.28;;;;;;;31.89;41.00;99469.91;5107274;27;20043;-25
2023/07/20 07:11:33;;;;;;;10.02;7.75;;;;;;;31.87;40.48;99459.25;5107308;28;20496;-26
2023/07/20 07:13:59;;;;;;;12.55;7.10;;;;;;;31.61;39.35;99458.19;5107387;28;20030;-28
2023/07/20 07:16:27;;;;;;;10.88;7.10;;;;;;;31.96;40.25;99459.75;5107731;28;20496;-24
2023/07/20 07:18:52;;;;;;;12.38;7.40;;;;;;;32.32;42.10;99454.59;5107699;28;20028;-26
2023/07/20 07:21:18;;;;;;;13.75;8.40;;;;;;;32.05;41.02;99461.44;5107554;28;20085;-24
2023/07/20 07:23:43;;;;;;;12.27;7.75;;;;;;;32.18;38.50;99459.97;5107825;28;20048;-24
2023/07/20 07:26:09;;;;;;;11.85;6.97;;;;;;;32.20;39.33;99460.38;5107463;28;20020;-24
2023/07/20 07:28:35;;;;;;;13.80;6.85;;;;;;;32.39;38.13;99462.16;5107695;28;20081;-24
2023/07/20 07:31:00;;;;;;;9.40;6.50;;;;;;;32.41;37.21;99459.81;5106691;27;20044;-24
2023/07/20 07:33:28;;;;;;;11.32;6.68;;;;;;;32.66;36.46;99459.25;5107525;28;20028;-24
2023/07/20 07:35:53;;;;;;;7.88;6.00;;;;;;;32.77;36.63;99457.31;5107375;28;20028;-24
2023/07/20 07:38:21;;;;;;;10.23;6.30;;;;;;;32.69;38.33;99459.25;5107117;28;20791;-24
2023/07/20 07:40:50;;;;;;;10.20;7.80;;;;;;;32.80;36.57;99460.13;5107291;28;20130;-28
2023/07/20 07:43:16;;;;;;;9.45;6.82;;;;;;;32.93;36.16;99460.59;5106871;28;20023;-24
2023/07/20 07:45:44;;;;;;;12.73;6.80;;;;;;;33.06;37.39;99457.50;5106059;28;20092;-24
2023/07/20 07:48:12;;;;;;;12.93;6.60;;;;;;;32.91;36.07;99457.41;5106937;28;20023;-24
2023/07/20 07:50:40;;;;;;;9.85;6.53;;;;;;;32.81;35.96;99453.41;5106849;28;20150;-24
2023/07/20 07:53:07;;;;;;;9.95;6.85;;;;;;;32.95;34.33;99463.75;5106221;28;20042;-25
2023/07/20 07:55:35;;;;;;;10.07;6.80;;;;;;;32.95;35.11;99446.41;5106787;28;20106;-24
2023/07/20 07:58:02;;;;;;;10.32;6.22;;;;;;;32.94;34.81;99458.66;5106511;28;20515;-25
2023/07/20 08:00:28;;;;;;;11.52;6.80;;;;;;;33.08;35.00;99449.63;5106584;28;20073;-30
2023/07/20 08:02:55;;;;;;;13.38;8.70;;;;;;;33.27;34.63;99451.34;5106672;28;20401;-24
2023/07/20 08:05:24;;;;;;;10.10;6.13;;;;;;;33.70;34.60;99457.84;5106691;28;20047;-25
2023/07/20 08:07:49;;;;;;;11.88;6.78;;;;;;;33.88;34.43;99446.03;5106581;28;20032;-24
2023/07/20 08:10:15;;;;;;;10.98;6.55;;;;;;;34.06;34.96;99441.31;5107086;28;20389;-24
2023/07/20 08:12:40;;;;;;;12.30;5.90;;;;;;;33.83;33.02;99449.97;5106674;28;20024;-24
2023/07/20 08:15:09;;;;;;;10.20;6.43;;;;;;;34.18;33.88;99441.00;5106477;28;20061;-24
2023/07/20 08:17:34;;;;;;;13.25;6.45;;;;;;;34.40;33.31;99449.28;5106536;27;20204;-23
2023/07/20 08:20:00;;;;;;;10.77;5.95;;;;;;;34.50;32.53;99447.72;5106278;28;20106;-24
2023/07/20 08:22:25;;;;;;;13.48;6.20;;;;;;;34.60;33.36;99449.69;5106296;28;20471;-24
2023/07/20 08:24:53;;;;;;;11.32;7.10;;;;;;;34.59;33.15;99437.00;5106235;28;20123;-24
2023/07/20 08:27:18;;;;;;;8.50;6.18;;;;;;;34.66;32.51;99442.59;5106466;28;20091;-28
2023/07/20 08:29:44;;;;;;;11.68;6.40;;;;;;;34.61;33.73;99434.63;5106668;28;20015;-27
2023/07/20 08:32:10;;;;;;;9.20;6.28;;;;;;;34.51;32.83;99446.50;5106160;28;20024;-23
2023/07/20 08:34:35;;;;;;;9.23;6.43;;;;;;;34.54;34.71;99445.72;5105807;28;20024;-22
2023/07/20 08:37:00;;;;;;;11.15;6.28;;;;;;;34.57;32.83;99439.38;5105926;28;20568;-23
2023/07/20 08:39:26;;;;;;;10.77;6.28;;;;;;;34.77;32.50;99445.34;5106024;28;20020;-22
2023/07/20 08:41:52;;;;;;;8.45;6.20;;;;;;;34.75;31.56;99447.72;5106008;28;20031;-23
2023/07/20 08:44:17;;;;;;;8.02;5.90;;;;;;;34.63;31.53;99440.56;5106078;28;20492;-24
2023/07/20 08:46:44;;;;;;;10.27;6.60;;;;;;;34.96;31.53;99446.88;5105692;28;20118;-23
2023/07/20 08:49:11;;;;;;;10.30;6.55;;;;;;;35.05;31.57;99427.06;5105811;28;20024;-23
2023/07/20 08:51:37;;;;;;;9.52;5.78;;;;;;;34.77;33.12;99442.56;5105828;28;20510;-23
2023/07/20 08:54:03;;;;;;;8.13;5.90;;;;;;;35.04;32.26;99439.34;5106393;28;20024;-23
2023/07/20 08:56:33;;;;;;;9.85;6.45;;;;;;;35.05;32.92;99444.50;5105769;28;20822;-23
2023/07/20 08:58:59;;;;;;;9.85;6.80;;;;;;;35.40;31.63;99443.59;5105246;28;20043;-24
2023/07/20 09:01:29;;;;;;;10.25;6.93;;;;;;;35.61;31.01;99447.44;5105742;28;20466;-23
2023/07/20 09:03:54;;;;;;;10.25;6.13;;;;;;;35.48;30.03;99443.56;5105726;28;20039;-23
2023/07/20 09:06:22;;;;;;;9.68;6.28;;;;;;;35.66;31.40;99429.66;5105438;28;20027;-24
2023/07/20 09:08:48;;;;;;;11.98;6.40;;;;;;;35.66;31.87;99426.88;5105714;28;20030;-23
2023/07/20 09:11:16;;;;;;;11.15;6.13;;;;;;;35.71;32.58;99426.44;5105232;28;20023;-23
2023/07/20 09:13:42;;;;;;;12.48;7.10;;;;;;;35.50;32.02;99424.53;5105265;28;20031;-23
2023/07/20 09:16:10;;;;;;;9.88;6.43;;;;;;;35.86;30.33;99425.16;5105285;28;20032;-23
2023/07/20 09:18:35;;;;;;;12.98;6.60;;;;;;;35.88;30.23;99422.78;5105319;28;20023;-22
2023/07/20 09:21:03;;;;;;;8.60;6.10;;;;;;;35.95;31.85;99405.28;5105054;28;20019;-23
2023/07/20 09:23:36;;;;;;;12.85;6.32;;;;;;;35.97;30.63;99417.53;5104871;28;20039;-23
2023/07/20 09:26:10;;;;;;;9.80;6.03;;;;;;;36.38;30.01;99404.97;5105102;28;20113;-25
2023/07/20 09:28:44;;;;;;;10.50;6.40;;;;;;;36.23;29.80;99409.84;5105383;27;20496;-23
2023/07/20 09:31:20;;;;;;;10.52;6.40;;;;;;;36.33;30.08;99406.19;5104850;28;20038;-23
2023/07/20 09:33:46;;;;;;;10.43;6.50;;;;;;;36.36;28.24;99404.56;5105218;28;20020;-24
2023/07/20 09:36:12;;;;;;;11.15;6.15;;;;;;;36.17;29.28;99390.06;5104908;27;20019;-23
2023/07/20 09:38:42;;;;;;;10.23;6.05;;;;;;;36.14;29.31;99384.50;5104978;28;20466;-23
2023/07/20 09:41:08;;;;;;;10.35;6.75;;;;;;;36.48;29.14;99387.41;5105176;28;20038;-22
2023/07/20 09:43:36;;;;;;;11.77;6.88;;;;;;;36.32;29.79;99385.16;5105336;28;20118;-23
2023/07/20 09:46:04;;;;;;;11.00;6.13;;;;;;;36.49;29.02;99382.63;5104849;28;20045;-23
2023/07/20 09:48:30;;;;;;;10.45;6.50;;;;;;;36.61;28.78;99390.44;5104771;28;20407;-23
2023/07/20 09:50:58;;;;;;;11.30;6.35;;;;;;;36.67;28.00;99383.25;5104493;28;20032;-23
2023/07/20 09:53:28;;;;;;;9.60;6.25;;;;;;;36.66;29.03;99381.72;5104972;28;20050;-23
2023/07/20 09:55:54;;;;;;;12.70;6.80;;;;;;;36.89;27.21;99371.94;5104590;28;20057;-22
2023/07/20 09:58:19;;;;;;;8.52;6.13;;;;;;;36.88;27.97;99370.34;5105212;27;20481;-23
2023/07/20 10:00:50;;;;;;;7.50;6.00;;;;;;;36.90;28.16;99359.59;5104157;28;20468;-24
2023/07/20 10:03:24;;;;;;;11.02;6.30;;;;;;;37.08;28.21;99364.94;5105081;28;20027;-23
2023/07/20 10:06:03;;;;;;;11.25;5.93;;;;;;;37.48;26.48;99356.91;5104685;28;20082;-23
2023/07/20 10:08:30;;;;;;;9.32;6.13;;;;;;;37.52;26.38;99340.94;5103595;28;20500;-23
2023/07/20 10:10:59;;;;;;;10.07;6.03;;;;;;;37.66;27.09;99351.88;5104731;28;20036;-23
2023/07/20 10:13:30;;;;;;;12.00;6.78;;;;;;;37.56;26.75;99348.03;5104552;28;20038;-23
2023/07/20 10:16:07;;;;;;;11.25;5.93;;;;;;;37.96;26.91;99342.63;5103900;28;20024;-23
2023/07/20 10:18:54;;;;;;;11.80;6.50;;;;;;;38.25;27.81;99336.63;5104137;28;20039;-23
2023/07/20 10:21:24;;;;;;;11.45;5.70;;;;;;;37.89;26.68;99334.41;5104181;28;20393;-24
2023/07/20 10:23:55;;;;;;;8.13;5.07;;;;;;;38.49;26.22;99325.44;5104610;28;20458;-23
2023/07/20 10:26:21;;;;;;;9.68;6.38;;;;;;;38.77;25.57;99327.69;5104680;28;20019;-27
2023/07/20 10:28:46;;;;;;;11.82;5.95;;;;;;;38.87;25.33;99325.13;5103932;28;20107;-23
2023/07/20 10:31:13;;;;;;;10.17;5.80;;;;;;;38.48;25.17;99324.66;5104507;28;20034;-23
2023/07/20 10:33:39;;;;;;;7.18;5.57;;;;;;;38.06;24.64;99318.66;5104195;28;20046;-23
2023/07/20 10:36:05;;;;;;;8.80;6.03;;;;;;;38.14;24.98;99322.09;5104123;28;20451;-23
2023/07/20 10:38:56;;;;;;;8.38;5.57;;;;;;;38.18;24.83;99314.47;5104402;28;20484;-23
2023/07/20 10:41:29;;;;;;;9.38;5.82;;;;;;;38.39;26.67;99313.28;5104785;28;20049;-24
2023/07/20 10:44:10;;;;;;;10.73;5.60;;;;;;;38.71;25.05;99295.97;5104466;28;20035;-23
2023/07/20 10:46:38;;;;;;;9.05;5.85;;;;;;;38.76;23.58;99303.84;5104093;28;20054;-23
2023/07/20 10:49:09;;;;;;;8.93;5.70;;;;;;;38.95;23.24;99281.94;5103985;28;20084;-24
2023/07/20 10:51:47;;;;;;;14.80;5.80;;;;;;;38.38;26.42;99293.00;5103995;28;20030;-23
2023/07/20 10:54:22;;;;;;;9.77;6.05;;;;;;;38.72;24.19;99291.97;5104255;28;20035;-23
2023/07/20 10:56:50;;;;;;;10.70;5.55;;;;;;;39.07;24.58;99292.44;5104375;28;20103;-23
2023/07/20 10:59:36;;;;;;;10.10;5.90;;;;;;;39.43;24.21;99286.06;5104175;28;20047;-23
2023/07/20 11:02:06;;;;;;;11.47;5.00;;;;;;;38.70;23.63;99277.69;5104000;28;20031;-23
2023/07/20 11:04:49;;;;;;;11.80;5.30;;;;;;;39.16;23.84;99286.28;5103827;28;20026;-23
2023/07/20 11:07:37;;;;;;;10.20;5.05;;;;;;;39.71;23.91;99281.03;5104195;28;20054;-24
2023/07/20 11:10:15;;;;;;;10.38;4.68;;;;;;;39.98;21.04;99284.31;5104179;28;20031;-23
2023/07/20 11:12:40;;;;;;;8.95;4.45;;;;;;;39.95;19.96;99279.63;5104312;28;20047;-23
2023/07/20 11:15:09;;;;;;;11.37;5.57;;;;;;;40.22;20.00;99286.88;5103670;28;20048;-24
2023/07/20 11:17:45;;;;;;;12.18;4.53;;;;;;;40.27;19.94;99279.97;5104381;28;20016;-25
2023/07/20 11:20:13;;;;;;;10.82;4.68;;;;;;;40.34;20.78;99263.84;5103683;28;20507;-23
2023/07/20 11:22:38;;;;;;;11.43;5.05;;;;;;;40.31;21.40;99263.94;5107816;28;20059;-23
2023/07/20 11:25:05;;;;;;;10.83;5.00;;;;;;;40.15;21.83;99271.13;5107463;28;20123;-23
2023/07/20 11:27:30;;;;;;;10.52;5.15;;;;;;;40.49;19.87;99257.84;5107998;28;20024;-24
2023/07/20 11:29:59;;;;;;;10.57;4.40;;;;;;;40.73;19.68;99267.53;5107355;28;20030;-22